createdAt,value
2017-06-30T00:01:12.475Z,26.40
2017-06-30T00:03:40.204Z,26.40
2017-06-30T00:06:07.919Z,26.30
2017-06-30T00:08:35.624Z,26.30
2017-06-30T00:11:03.329Z,26.30
2017-06-30T00:13:31.031Z,26.20
2017-06-30T00:15:58.744Z,26.20
2017-06-30T00:18:26.439Z,26.30
2017-06-30T00:20:54.152Z,26.20
2017-06-30T00:23:21.825Z,26.20
2017-06-30T00:25:49.510Z,26.20
2017-06-30T00:28:17.277Z,26.20
2017-06-30T00:30:44.988Z,26.20
2017-06-30T00:33:12.734Z,26.10
2017-06-30T00:35:40.424Z,26.10
2017-06-30T00:38:08.148Z,26.10
2017-06-30T00:40:35.821Z,26.00
2017-06-30T00:43:03.508Z,25.70
2017-06-30T00:45:31.179Z,25.20
2017-06-30T00:47:58.893Z,25.40
2017-06-30T00:50:26.585Z,25.50
2017-06-30T00:52:54.265Z,25.50
2017-06-30T00:55:21.944Z,25.60
2017-06-30T00:57:49.739Z,25.10
2017-06-30T01:00:17.520Z,24.90
2017-06-30T01:02:45.230Z,25.10
2017-06-30T01:05:12.987Z,25.20
2017-06-30T01:07:40.697Z,25.20
2017-06-30T01:10:08.395Z,25.10
2017-06-30T01:12:36.110Z,24.90
2017-06-30T01:15:04.616Z,24.90
2017-06-30T01:17:32.320Z,24.90
2017-06-30T01:20:00.013Z,24.90
2017-06-30T01:22:27.722Z,25.10
2017-06-30T01:24:55.408Z,25.10
2017-06-30T01:27:23.167Z,25.20
2017-06-30T01:29:50.872Z,25.20
2017-06-30T01:32:18.596Z,25.10
2017-06-30T01:34:46.286Z,25.10
2017-06-30T01:37:14.021Z,25.10
2017-06-30T01:39:41.698Z,25.10
2017-06-30T01:42:09.433Z,25.00
2017-06-30T01:44:37.121Z,24.20
2017-06-30T01:47:04.815Z,24.00
2017-06-30T01:49:32.589Z,23.90
2017-06-30T01:52:00.335Z,23.90
2017-06-30T01:54:28.042Z,24.20
2017-06-30T01:56:55.727Z,24.30
2017-06-30T01:59:23.411Z,24.40
2017-06-30T02:01:51.150Z,24.50
2017-06-30T02:04:18.868Z,24.50
2017-06-30T02:06:46.571Z,24.50
2017-06-30T02:09:14.308Z,24.60
2017-06-30T02:11:41.990Z,24.60
2017-06-30T02:14:09.705Z,24.70
2017-06-30T02:16:37.396Z,24.60
2017-06-30T02:19:05.200Z,24.70
2017-06-30T02:21:32.948Z,24.70
2017-06-30T02:24:00.698Z,24.70
2017-06-30T02:26:28.427Z,24.80
2017-06-30T02:28:56.190Z,24.80
2017-06-30T02:31:23.925Z,24.70
2017-06-30T02:33:51.609Z,24.80
2017-06-30T02:36:19.376Z,24.70
2017-06-30T02:38:47.057Z,24.60
2017-06-30T02:41:14.761Z,24.40
2017-06-30T02:43:42.519Z,24.50
2017-06-30T02:46:10.280Z,24.50
2017-06-30T02:48:37.959Z,24.40
2017-06-30T02:51:05.730Z,24.40
2017-06-30T02:53:33.464Z,24.30
2017-06-30T02:56:01.207Z,24.30
2017-06-30T02:58:28.960Z,24.20
2017-06-30T03:00:56.753Z,24.00
2017-06-30T03:03:24.502Z,24.00
2017-06-30T03:05:52.210Z,23.90
2017-06-30T03:08:19.933Z,24.00
2017-06-30T03:10:48.441Z,24.20
2017-06-30T03:13:16.205Z,24.20
2017-06-30T03:15:43.913Z,24.20
2017-06-30T03:18:11.687Z,24.20
2017-06-30T03:20:39.440Z,24.20
2017-06-30T03:23:07.129Z,24.30
2017-06-30T03:25:34.864Z,24.20
2017-06-30T03:28:02.626Z,24.20
2017-06-30T03:30:30.314Z,24.30
2017-06-30T03:32:58.001Z,24.30
2017-06-30T03:35:25.694Z,24.40
2017-06-30T03:37:53.381Z,24.50
2017-06-30T03:40:21.127Z,24.60
2017-06-30T03:42:48.900Z,24.50
2017-06-30T03:45:16.635Z,24.50
2017-06-30T03:47:44.390Z,24.50
2017-06-30T03:50:12.155Z,24.50
2017-06-30T03:52:39.918Z,24.40
2017-06-30T03:55:07.618Z,24.40
2017-06-30T03:57:35.320Z,24.40
2017-06-30T04:00:03.117Z,24.40
2017-06-30T04:02:30.889Z,24.30
2017-06-30T04:04:58.611Z,24.30
2017-06-30T04:07:26.377Z,24.20
2017-06-30T04:09:54.162Z,24.10
2017-06-30T04:12:21.944Z,24.20
2017-06-30T04:14:49.721Z,24.10
2017-06-30T04:17:17.479Z,24.00
2017-06-30T04:19:45.191Z,23.80
2017-06-30T04:22:12.906Z,23.80
2017-06-30T04:24:40.603Z,23.80
2017-06-30T04:27:08.368Z,23.80
2017-06-30T04:29:36.062Z,23.70
2017-06-30T04:32:03.799Z,23.70
2017-06-30T04:34:31.488Z,23.80
2017-06-30T04:36:59.225Z,23.80
2017-06-30T04:39:27.682Z,24.00
2017-06-30T04:41:55.347Z,23.90
2017-06-30T04:44:23.015Z,24.00
2017-06-30T04:46:50.693Z,23.90
2017-06-30T04:49:18.346Z,23.90
2017-06-30T04:51:46.010Z,24.10
2017-06-30T04:54:13.698Z,24.20
2017-06-30T04:56:41.445Z,24.20
2017-06-30T04:59:09.135Z,24.30
2017-06-30T05:01:37.604Z,24.30
2017-06-30T05:04:05.377Z,24.30
2017-06-30T05:06:33.104Z,24.20
2017-06-30T05:09:00.816Z,24.10
2017-06-30T05:11:28.513Z,24.20
2017-06-30T05:13:56.214Z,24.30
2017-06-30T05:16:23.965Z,24.40
2017-06-30T05:18:51.644Z,24.40
2017-06-30T05:21:19.372Z,24.50
2017-06-30T05:23:47.104Z,24.50
2017-06-30T05:26:15.160Z,24.60
2017-06-30T05:28:42.872Z,24.60
2017-06-30T05:31:10.634Z,24.50
2017-06-30T05:33:38.381Z,24.60
2017-06-30T05:36:06.132Z,24.60
2017-06-30T05:38:33.865Z,24.60
2017-06-30T05:41:01.559Z,24.60
2017-06-30T05:43:29.281Z,24.60
2017-06-30T05:45:57.047Z,24.70
2017-06-30T05:48:24.737Z,24.70
2017-06-30T05:50:52.479Z,24.70
2017-06-30T05:53:20.260Z,24.70
2017-06-30T05:55:48.030Z,24.70
2017-06-30T05:58:15.712Z,24.70
2017-06-30T06:00:43.458Z,24.80
2017-06-30T06:03:11.170Z,24.80
2017-06-30T06:05:38.935Z,24.90
2017-06-30T06:08:06.691Z,24.90
2017-06-30T06:10:34.375Z,24.90
2017-06-30T06:13:02.865Z,25.00
2017-06-30T06:15:30.563Z,24.90
2017-06-30T06:17:58.234Z,25.00
2017-06-30T06:20:26.332Z,25.10
2017-06-30T06:22:54.121Z,25.00
2017-06-30T06:25:21.869Z,25.10
2017-06-30T06:27:49.667Z,25.20
2017-06-30T06:30:18.163Z,25.20
2017-06-30T06:32:45.898Z,25.20
2017-06-30T06:35:13.637Z,25.20
2017-06-30T06:37:41.357Z,25.20
2017-06-30T06:40:09.856Z,25.20
2017-06-30T06:42:37.597Z,25.20
2017-06-30T06:45:05.379Z,25.20
2017-06-30T06:47:33.124Z,25.20
2017-06-30T06:50:00.825Z,25.20
2017-06-30T06:52:28.583Z,25.20
2017-06-30T06:54:56.377Z,25.20
2017-06-30T06:57:24.155Z,25.20
2017-06-30T06:59:51.948Z,25.20
2017-06-30T07:02:19.675Z,25.30
2017-06-30T07:04:47.456Z,25.30
2017-06-30T07:07:15.169Z,25.40
2017-06-30T07:09:43.671Z,25.50
2017-06-30T07:12:11.480Z,25.50
2017-06-30T07:14:39.196Z,25.50
2017-06-30T07:17:07.011Z,25.50
2017-06-30T07:19:34.735Z,25.50
2017-06-30T07:22:03.099Z,25.50
2017-06-30T07:24:30.976Z,25.50
2017-06-30T07:26:58.684Z,25.50
2017-06-30T07:29:26.409Z,25.50
2017-06-30T07:31:54.194Z,25.50
2017-06-30T07:34:21.975Z,25.50
2017-06-30T07:36:49.689Z,25.50
2017-06-30T07:39:17.474Z,25.60
2017-06-30T07:41:45.193Z,25.60
2017-06-30T07:44:12.985Z,25.60
2017-06-30T07:46:40.726Z,25.70
2017-06-30T07:49:08.436Z,25.80
2017-06-30T07:51:36.201Z,25.80
2017-06-30T07:54:04.690Z,25.80
2017-06-30T07:56:32.456Z,25.80
2017-06-30T07:59:00.263Z,25.80
2017-06-30T08:01:28.045Z,25.80
2017-06-30T08:03:55.771Z,25.80
2017-06-30T08:06:23.552Z,25.80
2017-06-30T08:08:51.326Z,25.80
2017-06-30T08:11:19.895Z,25.80
2017-06-30T08:13:47.599Z,25.90
2017-06-30T08:16:15.317Z,25.90
2017-06-30T08:18:43.030Z,25.90
2017-06-30T08:21:10.807Z,25.80
2017-06-30T08:23:38.615Z,25.80
2017-06-30T08:26:06.420Z,25.80
2017-06-30T08:28:34.135Z,25.80
2017-06-30T08:31:01.849Z,25.80
2017-06-30T08:33:29.591Z,25.80
2017-06-30T08:35:57.307Z,25.90
2017-06-30T08:38:25.011Z,25.90
2017-06-30T08:40:52.728Z,25.90
2017-06-30T08:43:20.430Z,25.90
2017-06-30T08:45:48.202Z,25.90
2017-06-30T08:48:15.913Z,26.00
2017-06-30T08:50:44.674Z,26.00
2017-06-30T08:53:12.406Z,26.00
2017-06-30T08:55:40.203Z,26.00
2017-06-30T08:58:08.636Z,26.00
2017-06-30T09:00:36.414Z,26.10
2017-06-30T09:03:04.188Z,26.10
2017-06-30T09:05:31.908Z,26.10
2017-06-30T09:07:59.650Z,26.20
2017-06-30T09:10:27.416Z,26.20
2017-06-30T09:12:55.127Z,26.20
2017-06-30T09:15:22.914Z,26.20
2017-06-30T09:17:50.623Z,26.20
2017-06-30T09:20:18.331Z,26.20
2017-06-30T09:22:46.116Z,26.20
2017-06-30T09:25:13.838Z,26.20
2017-06-30T09:27:41.619Z,26.20
2017-06-30T09:30:09.711Z,26.20
2017-06-30T09:32:37.438Z,26.20
2017-06-30T09:35:05.823Z,26.20
2017-06-30T09:37:33.756Z,26.30
2017-06-30T09:40:01.759Z,26.40
2017-06-30T09:42:29.621Z,26.40
2017-06-30T09:44:58.628Z,26.40
2017-06-30T09:47:26.726Z,26.40
2017-06-30T09:49:57.484Z,26.40
2017-06-30T09:52:25.493Z,26.40
2017-06-30T09:54:53.449Z,26.40
2017-06-30T09:57:22.139Z,26.40
2017-06-30T09:59:50.742Z,26.40
2017-06-30T10:02:18.535Z,26.40
2017-06-30T10:04:46.285Z,26.40
2017-06-30T10:07:14.117Z,26.40
2017-06-30T10:09:42.607Z,26.40
2017-06-30T10:12:10.352Z,26.30
2017-06-30T10:14:38.144Z,26.40
2017-06-30T10:17:05.876Z,26.40
2017-06-30T10:19:33.644Z,26.40
2017-06-30T10:22:01.439Z,26.40
2017-06-30T10:24:29.275Z,26.40
2017-06-30T10:26:57.306Z,26.40
2017-06-30T10:29:25.053Z,26.40
2017-06-30T10:31:53.564Z,26.40
2017-06-30T10:34:21.306Z,26.40
2017-06-30T10:36:54.048Z,26.40
2017-06-30T10:39:21.932Z,26.40
2017-06-30T10:41:50.559Z,26.40
2017-06-30T10:44:18.302Z,26.40
2017-06-30T10:46:46.873Z,26.40
2017-06-30T10:49:19.962Z,26.40
2017-06-30T10:51:48.035Z,26.40
2017-06-30T10:54:15.817Z,26.40
2017-06-30T10:56:43.551Z,26.40
2017-06-30T10:59:11.305Z,26.50
2017-06-30T11:01:39.054Z,26.50
2017-06-30T11:04:06.869Z,26.40
2017-06-30T11:06:38.209Z,26.40
2017-06-30T11:09:05.993Z,26.40
2017-06-30T11:11:33.762Z,26.50
2017-06-30T11:14:01.592Z,26.50
2017-06-30T11:16:29.694Z,26.50
2017-06-30T11:18:58.440Z,26.50
2017-06-30T11:21:26.552Z,26.50
2017-06-30T11:23:54.367Z,26.50
2017-06-30T11:26:22.122Z,26.50
2017-06-30T11:28:49.843Z,26.50
2017-06-30T11:31:17.583Z,26.50
2017-06-30T11:33:45.309Z,26.50
2017-06-30T11:36:13.133Z,26.50
2017-06-30T11:38:40.971Z,26.40
2017-06-30T11:41:08.801Z,26.40
2017-06-30T11:43:36.597Z,26.40
2017-06-30T11:46:04.389Z,26.40
2017-06-30T11:48:32.192Z,26.40
2017-06-30T11:50:59.938Z,26.40
2017-06-30T11:53:27.718Z,26.40
2017-06-30T11:55:55.458Z,26.50
2017-06-30T11:58:23.198Z,26.40
2017-06-30T12:00:50.963Z,26.40
2017-06-30T12:03:18.702Z,26.40
2017-06-30T12:05:46.475Z,26.40
2017-06-30T12:08:14.183Z,26.40
2017-06-30T12:10:48.099Z,26.40
2017-06-30T12:13:36.516Z,26.40
2017-06-30T12:16:04.261Z,26.40
2017-06-30T12:18:32.100Z,26.40
2017-06-30T12:21:01.167Z,26.40
2017-06-30T12:23:29.126Z,26.40
2017-06-30T12:25:56.923Z,26.40
2017-06-30T12:28:25.072Z,26.40
2017-06-30T12:30:52.825Z,26.40
2017-06-30T12:33:21.318Z,26.40
2017-06-30T12:35:49.102Z,26.40
2017-06-30T12:38:17.732Z,26.40
2017-06-30T12:40:45.472Z,26.40
2017-06-30T12:43:13.196Z,26.40
2017-06-30T13:34:16.268Z,26.40
2017-06-30T13:36:50.644Z,26.50
2017-06-30T13:39:18.500Z,26.40
2017-06-30T13:41:46.371Z,26.40
2017-06-30T13:44:15.311Z,26.50
2017-06-30T13:46:43.274Z,26.50
2017-06-30T13:49:11.094Z,26.60
2017-06-30T13:51:38.920Z,26.60
2017-06-30T13:54:06.653Z,26.60
2017-06-30T13:56:34.373Z,26.60
2017-06-30T13:59:02.117Z,26.60
2017-06-30T14:01:29.919Z,26.60
2017-06-30T14:03:57.692Z,26.60
2017-06-30T14:06:25.429Z,26.60
2017-06-30T14:08:53.169Z,26.60
2017-06-30T14:11:20.914Z,26.60
2017-06-30T14:13:48.650Z,26.50
2017-06-30T14:16:16.441Z,26.50
2017-06-30T14:18:44.263Z,26.50
2017-06-30T14:21:12.084Z,26.50
2017-06-30T14:23:39.881Z,26.40
2017-06-30T14:26:07.647Z,26.40
2017-06-30T14:28:35.397Z,26.40
2017-06-30T14:31:03.203Z,26.40
2017-06-30T14:33:31.006Z,26.40
2017-06-30T14:35:58.816Z,26.40
2017-06-30T14:38:26.598Z,26.40
2017-06-30T14:40:54.336Z,26.40
2017-06-30T14:43:22.124Z,26.40
2017-06-30T14:45:49.874Z,26.40
2017-06-30T14:48:17.689Z,26.40
2017-06-30T14:50:45.449Z,26.40
2017-06-30T14:53:13.338Z,26.40
2017-06-30T14:55:41.108Z,26.30
2017-06-30T14:58:09.580Z,26.30
2017-06-30T15:00:37.300Z,26.30
2017-06-30T15:03:05.107Z,26.30
2017-06-30T15:05:32.884Z,26.30
2017-06-30T15:08:01.308Z,26.20
2017-06-30T15:10:29.148Z,26.20
2017-06-30T15:12:56.881Z,26.20
2017-06-30T15:15:25.390Z,26.20
2017-06-30T15:17:53.240Z,26.20
2017-06-30T15:20:20.995Z,26.20
2017-06-30T15:22:48.939Z,26.20
2017-06-30T15:25:16.838Z,26.20
2017-06-30T15:27:45.363Z,26.10
2017-06-30T15:30:13.121Z,26.10
2017-06-30T15:32:40.946Z,26.10
2017-06-30T15:35:08.738Z,26.20
2017-06-30T15:37:36.480Z,26.20
2017-06-30T15:40:04.281Z,26.20
2017-06-30T15:42:32.092Z,26.20
2017-06-30T15:44:59.818Z,26.20
2017-06-30T15:47:27.994Z,26.20
2017-06-30T15:49:55.772Z,26.20
2017-06-30T15:52:23.772Z,26.20
2017-06-30T15:54:53.117Z,26.20
2017-06-30T15:57:22.349Z,26.20
2017-06-30T15:59:51.000Z,26.00
2017-06-30T16:02:18.860Z,26.00
2017-06-30T16:04:48.736Z,26.00
2017-06-30T16:07:25.361Z,26.10
2017-06-30T16:30:09.513Z,25.80
2017-06-30T16:32:49.378Z,26.00
2017-06-30T16:35:22.036Z,26.00
2017-06-30T16:37:49.883Z,26.00
2017-06-30T16:40:17.644Z,26.10
2017-06-30T16:49:39.735Z,26.00
2017-06-30T16:52:08.265Z,25.90
2017-06-30T16:54:36.337Z,25.90
2017-06-30T16:57:05.047Z,25.80
2017-06-30T16:59:33.617Z,25.70
2017-06-30T17:04:54.801Z,25.70
2017-06-30T17:07:22.584Z,25.70
2017-06-30T17:09:51.306Z,25.80
2017-06-30T17:12:19.018Z,25.70
2017-06-30T17:14:46.747Z,25.80
2017-06-30T17:17:14.871Z,25.80
2017-06-30T17:19:42.611Z,25.90
2017-06-30T17:22:10.383Z,25.80
2017-06-30T17:24:39.808Z,25.80
2017-06-30T17:27:07.581Z,25.80
2017-06-30T17:29:35.412Z,25.80
2017-06-30T17:32:03.956Z,25.80
2017-06-30T17:34:31.690Z,25.80
2017-06-30T17:37:01.038Z,25.70
2017-06-30T17:39:28.866Z,25.80
2017-06-30T17:41:56.775Z,25.70
2017-06-30T17:44:24.491Z,25.80
2017-06-30T17:46:52.215Z,25.80
2017-06-30T17:49:19.922Z,25.90
2017-06-30T17:51:47.687Z,25.80
2017-06-30T17:54:15.416Z,25.70
2017-06-30T17:56:43.212Z,25.70
2017-06-30T17:59:11.001Z,25.80
2017-06-30T18:01:38.767Z,25.70
2017-06-30T18:04:06.530Z,25.60
2017-06-30T18:06:34.298Z,25.60
2017-06-30T18:09:02.091Z,25.50
2017-06-30T18:11:29.806Z,25.30
2017-06-30T18:13:57.747Z,25.40
2017-06-30T18:16:25.513Z,25.40
2017-06-30T18:18:53.309Z,25.30
2017-06-30T18:21:26.933Z,25.40
2017-06-30T18:23:55.523Z,25.20
2017-06-30T18:26:23.241Z,25.20
2017-06-30T18:28:51.020Z,25.10
2017-06-30T18:31:18.739Z,25.10
2017-06-30T18:33:46.496Z,24.90
2017-06-30T18:36:14.278Z,25.10
2017-06-30T18:38:42.057Z,25.10
2017-06-30T18:41:09.753Z,25.20
2017-06-30T18:43:37.512Z,25.20
2017-06-30T18:46:05.279Z,25.10
2017-06-30T18:48:32.993Z,24.90
2017-06-30T18:51:00.715Z,24.70
2017-06-30T18:53:28.417Z,24.60
2017-06-30T18:55:56.180Z,24.70
2017-06-30T18:58:23.952Z,24.80
2017-06-30T19:00:51.731Z,25.00
2017-06-30T19:03:19.495Z,25.00
2017-06-30T19:05:47.214Z,25.00
2017-06-30T19:08:14.914Z,25.00
2017-06-30T19:10:42.639Z,24.80
2017-06-30T19:13:10.444Z,24.60
2017-06-30T19:15:38.162Z,24.50
2017-06-30T19:18:05.948Z,24.60
2017-06-30T19:20:33.814Z,24.50
2017-06-30T19:23:01.521Z,24.60
2017-06-30T19:25:30.306Z,24.60
2017-06-30T19:28:01.548Z,24.70
2017-06-30T19:30:34.577Z,24.90
2017-06-30T19:33:17.168Z,24.90
2017-06-30T19:36:01.631Z,24.90
2017-06-30T19:38:29.348Z,24.90
2017-06-30T19:40:57.134Z,24.80
2017-06-30T19:43:24.908Z,24.90
2017-06-30T19:45:52.775Z,24.70
2017-06-30T19:48:20.625Z,24.70
2017-06-30T19:50:48.681Z,24.50
2017-06-30T19:53:18.849Z,24.40
2017-06-30T19:55:47.623Z,24.50
2017-06-30T19:58:16.592Z,24.30
2017-06-30T20:00:46.416Z,24.20
2017-06-30T20:03:16.000Z,24.30
2017-06-30T20:05:44.478Z,24.30
2017-06-30T20:08:17.317Z,24.20
2017-06-30T20:10:45.383Z,24.20
2017-06-30T20:13:13.413Z,24.20
2017-06-30T20:15:44.842Z,24.20
2017-06-30T20:18:12.717Z,24.20
2017-06-30T20:20:40.970Z,24.20
2017-06-30T20:23:09.959Z,23.90
2017-06-30T20:25:40.232Z,23.80
2017-06-30T20:28:09.954Z,23.80
2017-06-30T20:30:39.628Z,23.80
2017-06-30T20:33:09.962Z,23.80
2017-06-30T20:35:39.490Z,23.80
2017-06-30T20:38:09.055Z,23.80
2017-06-30T20:40:38.195Z,23.90
2017-06-30T20:43:07.217Z,23.80
2017-06-30T20:45:36.648Z,23.70
2017-06-30T20:48:06.349Z,23.80
2017-06-30T20:50:34.305Z,23.70
2017-06-30T20:53:03.085Z,23.90
2017-06-30T20:55:31.409Z,23.80
2017-06-30T20:58:00.572Z,23.80
2017-06-30T21:00:29.275Z,23.80
2017-06-30T21:02:58.612Z,23.90
2017-06-30T21:05:26.980Z,23.70
2017-06-30T21:07:54.827Z,23.80
2017-06-30T21:10:23.387Z,23.80
2017-06-30T21:12:51.575Z,23.70
2017-06-30T21:15:19.380Z,23.60
2017-06-30T21:17:47.858Z,23.60
2017-06-30T21:20:30.011Z,23.40
2017-06-30T21:23:03.001Z,23.50
2017-06-30T21:25:33.594Z,23.50
2017-06-30T21:28:03.497Z,23.50
2017-06-30T21:30:33.407Z,23.50
2017-06-30T21:33:02.976Z,23.50
2017-06-30T21:35:32.687Z,23.50
2017-06-30T21:38:02.499Z,23.50
2017-06-30T21:40:32.252Z,23.50
2017-06-30T21:43:02.306Z,23.50
2017-06-30T21:45:31.856Z,23.50
2017-06-30T21:48:01.610Z,23.50
2017-06-30T21:50:31.035Z,23.50
2017-06-30T21:53:00.707Z,23.50
2017-06-30T21:55:32.302Z,23.40
2017-06-30T21:58:01.663Z,23.40
2017-06-30T22:00:31.496Z,23.30
2017-06-30T22:03:07.605Z,23.30
2017-06-30T22:11:19.646Z,23.20
2017-06-30T22:13:54.619Z,23.20
2017-06-30T22:16:22.415Z,23.10
2017-06-30T22:18:50.204Z,23.10
2017-06-30T22:21:17.998Z,23.20
2017-06-30T22:23:45.852Z,23.10
2017-06-30T22:26:13.558Z,23.10
2017-06-30T22:28:41.359Z,23.10
2017-06-30T22:31:09.122Z,23.00
2017-06-30T22:33:39.892Z,23.00
2017-06-30T22:36:07.868Z,23.00
2017-06-30T22:38:35.654Z,23.00
2017-06-30T22:41:03.423Z,22.90
2017-06-30T22:43:31.143Z,22.80
2017-06-30T22:45:58.910Z,22.80
2017-06-30T22:48:26.623Z,22.80
2017-06-30T22:50:54.355Z,22.80
2017-06-30T22:53:22.080Z,22.80
2017-06-30T22:55:49.893Z,22.90
2017-06-30T22:58:17.662Z,22.90
2017-06-30T23:00:45.423Z,22.90
2017-06-30T23:03:13.143Z,22.80
2017-06-30T23:05:40.855Z,22.80
2017-06-30T23:08:08.565Z,22.80
2017-06-30T23:10:36.285Z,22.80
2017-06-30T23:13:04.027Z,22.80
2017-06-30T23:15:31.740Z,22.80
2017-06-30T23:17:59.484Z,22.80
2017-06-30T23:20:27.191Z,22.80
2017-06-30T23:22:54.942Z,22.70
2017-06-30T23:25:22.716Z,22.80
2017-06-30T23:27:50.441Z,22.80
2017-06-30T23:30:18.243Z,22.80
2017-06-30T23:32:46.013Z,22.70
2017-06-30T23:35:13.723Z,22.70
2017-06-30T23:37:41.453Z,22.70
2017-06-30T23:40:09.177Z,22.70
2017-06-30T23:42:36.949Z,22.70
2017-06-30T23:45:04.715Z,22.70
2017-06-30T23:47:32.421Z,22.70
2017-06-30T23:50:00.212Z,22.60
2017-06-30T23:52:27.984Z,22.60
2017-06-30T23:54:55.750Z,22.60
2017-06-30T23:57:23.522Z,22.60
2017-06-30T23:59:51.297Z,22.70
